Tsm Penzer — FIZR — position and weather

sailwx.info

Track history (hours):
 
Tides and Currents Weather Stations Pressure Air Temp Water Temp Dewpoint Dewpoint Depression Visibility Wind Speed Wind Dir Waves Ship Positions

Tsm Penzer

Last reported at 2018-Apr-22 06:54 UTC. Time now 2018-Apr-22 14:41 UTC.
Position N 48°23' W 004°29'.

Length 28 m; draft 1 m.

Type: Other ship. MMSI: 228076900.

Date/timePositionNaut miles runAvg speedWind from/ knotsBaromVisibWave heightAir tempDewpointWater temp
2018-Apr-22 06:54N 48°23' W 004°29'0 0.0
2018-Apr-22 06:30N 48°23' W 004°29'0 0.0
2018-Apr-22 06:00N 48°23' W 004°29'0 0.0
2018-Apr-22 05:30N 48°23' W 004°29'0 0.0
2018-Apr-22 05:00N 48°23' W 004°29'0 0.0
2018-Apr-22 04:30N 48°23' W 004°29'0 0.0
2018-Apr-22 04:00N 48°23' W 004°29'0 0.0
2018-Apr-22 03:30N 48°23' W 004°29'0 0.0
2018-Apr-22 03:00N 48°23' W 004°29'0 0.0
2018-Apr-22 02:30N 48°23' W 004°29'0 0.0
2018-Apr-22 02:00N 48°23' W 004°29'0 0.0
2018-Apr-22 01:30N 48°23' W 004°29'0 0.0
2018-Apr-22 01:00N 48°23' W 004°29'3 6.2
2018-Apr-22 00:30N 48°21' W 004°33'5 9.8
2018-Apr-22 00:00N 48°20' W 004°40'510.3
2018-Apr-21 23:30N 48°20' W 004°47'713.3
2018-Apr-21 22:59N 48°27' W 004°49'612.0
2018-Apr-21 22:30N 48°33' W 004°49'611.6
2018-Apr-21 21:58N 48°38' W 004°42'106 4.9
2018-Apr-21 00:28N 48°37' W 002°02'0 0.0
2018-Apr-20 23:58N 48°37' W 002°02'36 6.4
2018-Apr-20 18:18N 48°54' W 002°50'1115.4
2018-Apr-20 17:34N 48°55' W 003°08'214.6
2018-Apr-20 17:28N 48°55' W 003°10'713.6
2018-Apr-20 16:58N 48°53' W 003°20'6210.1
2018-Apr-20 10:54N 48°34' W 004°48'910.0
2018-Apr-20 10:00N 48°25' W 004°49'4 8.9
2018-Apr-20 09:30N 48°20' W 004°47'510.2
2018-Apr-20 09:00N 48°20' W 004°40'713.5
2018-Apr-20 08:30N 48°22' W 004°30'1 2.9
2018-Apr-20 08:00N 48°23' W 004°29'0 0.0
2018-Apr-20 07:30N 48°23' W 004°29'0 0.1
2018-Apr-20 07:00N 48°23' W 004°29'0 0.0
2018-Apr-20 06:30N 48°23' W 004°29'0 0.0
2018-Apr-20 06:00N 48°23' W 004°29'0 0.0
2018-Apr-20 05:30N 48°23' W 004°29'0 0.0
2018-Apr-20 05:00N 48°23' W 004°29'0 0.0
2018-Apr-19 18:01N 48°23' W 004°29'0 0.4
2018-Apr-19 18:00N 48°23' W 004°29'0 0.0
2018-Apr-19 17:30N 48°23' W 004°29'0 0.0
2018-Apr-19 17:01N 48°23' W 004°29'3 6.5
2018-Apr-19 16:30N 48°20' W 004°28'3 5.4
2018-Apr-19 16:00N 48°18' W 004°25'0 0.0
2018-Apr-19 15:30N 48°18' W 004°25'0 0.0
2018-Apr-19 15:01N 48°18' W 004°25'0 0.0
2018-Apr-19 14:30N 48°18' W 004°25'0 0.0
2018-Apr-19 14:00N 48°18' W 004°25'0 0.0
2018-Apr-19 13:31N 48°18' W 004°25'0 0.0
2018-Apr-19 13:00N 48°18' W 004°25'0 0.1
2018-Apr-19 12:30N 48°18' W 004°25'0 0.0
2018-Apr-19 12:00N 48°18' W 004°25'0 0.0
2018-Apr-19 11:30N 48°18' W 004°25'0 0.0
2018-Apr-19 11:00N 48°18' W 004°25'0 0.0
2018-Apr-19 10:30N 48°18' W 004°25'0 0.0
2018-Apr-19 10:00N 48°18' W 004°25'0 0.0
2018-Apr-19 09:31N 48°18' W 004°25'0 0.0
2018-Apr-19 09:01N 48°18' W 004°25'0 0.0
2018-Apr-19 08:30N 48°18' W 004°25'1 2.4
2018-Apr-19 08:00N 48°19' W 004°26'4 8.7
2018-Apr-19 07:30N 48°23' W 004°29'0 0.0
2018-Apr-19 07:00N 48°23' W 004°29'0 0.0
2018-Apr-19 06:30N 48°23' W 004°29'1 1.7
2018-Apr-19 06:00N 48°22' W 004°29'3 5.1
2018-Apr-19 05:31N 48°21' W 004°33'1 2.1
2018-Apr-19 05:01N 48°21' W 004°32'2 3.1
2018-Apr-19 04:30N 48°22' W 004°29'1 1.5
2018-Apr-19 04:00N 48°23' W 004°29'0 0.2
2018-Apr-19 03:30N 48°23' W 004°29'0 0.0
2018-Apr-18 16:14N 48°23' W 004°29'0 1.2
2018-Apr-18 16:01N 48°23' W 004°29'1 1.2
2018-Apr-18 15:31N 48°22' W 004°29'5 9.5
2018-Apr-18 15:01N 48°19' W 004°25'0 0.9
2018-Apr-18 14:31N 48°18' W 004°25'0 0.0
2018-Apr-18 14:00N 48°18' W 004°25'0 0.0
2018-Apr-18 13:31N 48°18' W 004°25'0 0.0
2018-Apr-18 13:01N 48°18' W 004°25'0 0.0
2018-Apr-18 12:30N 48°18' W 004°25'0 0.0
2018-Apr-18 12:01N 48°18' W 004°25'0 0.0
2018-Apr-18 11:30N 48°18' W 004°25'0 0.0
2018-Apr-18 11:01N 48°18' W 004°25'0 0.0
2018-Apr-18 10:31N 48°18' W 004°25'0 0.0
2018-Apr-18 10:01N 48°18' W 004°25'0 0.3
2018-Apr-18 09:30N 48°18' W 004°24'0 0.3
2018-Apr-18 09:00N 48°18' W 004°24'0 0.4
2018-Apr-18 08:31N 48°18' W 004°25'5 9.2
2018-Apr-18 08:01N 48°22' W 004°29'1 2.4
2018-Apr-18 07:31N 48°23' W 004°29'0 0.0
2018-Apr-18 07:01N 48°23' W 004°29'0 0.0
2018-Apr-18 06:31N 48°23' W 004°29'0 0.0
2018-Apr-18 06:01N 48°23' W 004°29'0 0.0
2018-Apr-18 05:31N 48°23' W 004°29'0 0.0
2018-Apr-18 05:01N 48°23' W 004°29'0 0.0
2018-Apr-18 04:31N 48°23' W 004°29'0 0.0
2018-Apr-17 14:58N 48°23' W 004°29'0 0.0
2018-Apr-17 14:30N 48°23' W 004°29'0 0.0
2018-Apr-17 14:00N 48°23' W 004°29'0 0.0
2018-Apr-17 13:30N 48°23' W 004°29'0 0.0
2018-Apr-17 13:00N 48°23' W 004°29'0 0.0
2018-Apr-17 12:30N 48°23' W 004°29'0 0.0
2018-Apr-17 12:00N 48°23' W 004°29'4 7.7
2018-Apr-17 11:30N 48°21' W 004°33'612.2
2018-Apr-17 11:01N 48°16' W 004°39'611.8
2018-Apr-17 10:30N 48°10' W 004°42'611.8
2018-Apr-17 10:00N 48°05' W 004°45'510.5
2018-Apr-17 09:30N 47°60' W 004°42'611.6
2018-Apr-17 08:58N 47°55' W 004°35'1111.1
2018-Apr-17 07:58N 47°47' W 004°24'10 9.9
2018-Apr-17 06:58N 47°47' W 004°09'7 5.2
2018-Apr-17 05:43N 47°53' W 004°07'0 0.1
2018-Apr-17 04:33N 47°53' W 004°07'0 0.1
2018-Apr-17 02:36N 47°53' W 004°07'0 0.0
2018-Apr-17 02:30N 47°53' W 004°07'0 0.0
2018-Apr-17 01:57N 47°53' W 004°07'0 0.0
2018-Apr-16 18:38N 47°53' W 004°07'0 0.1
2018-Apr-16 17:53N 47°53' W 004°07'0 0.1
2018-Apr-16 16:58N 47°53' W 004°07'0 0.0
2018-Apr-16 14:58N 47°53' W 004°07'0 0.0
2018-Apr-16 12:33N 47°53' W 004°07'0 0.0
2018-Apr-16 11:33N 47°53' W 004°07'0 0.0
2018-Apr-16 10:33N 47°53' W 004°07'0 0.0
2018-Apr-16 06:43N 47°53' W 004°07'0 0.0
2018-Apr-16 04:33N 47°53' W 004°07'0 0.0
2018-Apr-16 02:58N 47°53' W 004°07'10 9.4
2018-Apr-16 01:53N 47°44' W 004°15'10 9.4
2018-Apr-16 00:48N 47°49' W 004°28'910.4
2018-Apr-15 23:58N 47°55' W 004°37'5 9.7
2018-Apr-15 23:31N 47°59' W 004°41'4 7.9
2018-Apr-15 23:01N 48°02' W 004°45'3 5.7
2018-Apr-15 22:30N 48°04' W 004°45'5 9.1
2018-Apr-15 22:01N 48°09' W 004°43'5 9.2
2018-Apr-15 21:30N 48°13' W 004°40'5 9.2
2018-Apr-15 21:00N 48°17' W 004°38'5 9.4
2018-Apr-15 20:30N 48°21' W 004°33'4 7.1
2018-Apr-15 20:01N 48°23' W 004°29'0 0.0
2018-Apr-15 19:30N 48°23' W 004°29'0 0.0
2018-Apr-15 19:00N 48°23' W 004°29'0 0.0
2018-Apr-15 18:30N 48°23' W 004°29'0 0.0
2018-Apr-15 18:01N 48°23' W 004°29'0 0.0
2018-Apr-15 17:30N 48°23' W 004°29'0 0.0
2018-Apr-14 09:42N 48°23' W 004°29'0 0.1
2018-Apr-14 09:30N 48°23' W 004°29'1 2.6
2018-Apr-14 09:00N 48°23' W 004°27'2 4.0
2018-Apr-14 08:30N 48°22' W 004°30'4 8.3
2018-Apr-14 08:00N 48°20' W 004°35'5 9.6
2018-Apr-14 07:30N 48°19' W 004°43'4 7.3
2018-Apr-14 07:00N 48°22' W 004°47'612.0
2018-Apr-14 06:30N 48°26' W 004°53'510.8
2018-Apr-14 06:00N 48°28' W 005°01'2 3.6
2018-Apr-14 05:30N 48°28' W 005°03'0 0.0
2018-Apr-14 05:00N 48°28' W 005°03'0 0.0
2018-Apr-14 04:30N 48°28' W 005°03'0 0.0
2018-Apr-14 04:00N 48°28' W 005°03'2 4.2
2018-Apr-14 03:30N 48°28' W 005°00'4 7.8
2018-Apr-14 03:00N 48°26' W 005°05'3 5.1
2018-Apr-14 02:30N 48°26' W 005°09'2 4.5
2018-Apr-14 02:00N 48°27' W 005°06'0 0.0
2018-Apr-14 01:30N 48°27' W 005°06'2 4.6
2018-Apr-14 01:00N 48°26' W 005°09'611.2
2018-Apr-14 00:30N 48°22' W 005°03'611.2
2018-Apr-14 00:00N 48°20' W 004°55'510.5
2018-Apr-13 23:30N 48°19' W 004°47'611.3
2018-Apr-13 23:00N 48°20' W 004°39'5 9.7
2018-Apr-13 22:30N 48°21' W 004°32'3 5.3
2018-Apr-13 22:00N 48°23' W 004°29'0 0.0
2018-Apr-13 21:30N 48°23' W 004°29'0 0.0
2018-Apr-13 21:00N 48°23' W 004°29'0 0.0
2018-Apr-13 20:30N 48°23' W 004°29'0 0.0
2018-Apr-13 20:00N 48°23' W 004°29'0 0.0
2018-Apr-13 19:30N 48°23' W 004°29'0 0.0
2018-Apr-13 19:00N 48°23' W 004°29'0 0.0
2018-Apr-13 18:30N 48°23' W 004°29'0 0.0
2018-Apr-13 18:00N 48°23' W 004°29'0 0.0
2018-Apr-13 17:30N 48°23' W 004°29'0 0.3
2018-Apr-13 17:00N 48°23' W 004°29'1 2.6
2018-Apr-13 16:30N 48°23' W 004°27'0 0.5
2018-Apr-13 15:30N 48°23' W 004°26'2 3.5
2018-Apr-13 15:00N 48°23' W 004°29'0 0.0
2018-Apr-13 14:30N 48°23' W 004°29'0 0.0
2018-Apr-13 14:00N 48°23' W 004°29'0 0.0
2018-Apr-13 13:30N 48°23' W 004°29'0 0.0
2018-Apr-13 13:00N 48°23' W 004°29'0 0.0
2018-Apr-13 12:30N 48°23' W 004°29'0 0.0
2018-Apr-13 12:00N 48°23' W 004°29'0 0.0
2018-Apr-13 11:30N 48°23' W 004°29'0 0.0
2018-Apr-13 11:00N 48°23' W 004°29'0 0.0
2018-Apr-13 10:30N 48°23' W 004°29'0 0.0
2018-Apr-13 10:00N 48°23' W 004°29'0 0.0
2018-Apr-13 09:30N 48°23' W 004°29'0 0.0
2018-Apr-13 09:00N 48°23' W 004°29'2 4.4
2018-Apr-13 08:30N 48°21' W 004°31'1 2.3
2018-Apr-13 08:00N 48°22' W 004°33'0 0.0
2018-Apr-13 07:30N 48°21' W 004°33'2 4.0
2018-Apr-13 07:00N 48°22' W 004°30'1 2.8
2018-Apr-13 06:30N 48°23' W 004°29'0 0.0
2018-Apr-13 06:00N 48°23' W 004°29'0 0.0
2018-Apr-13 05:30N 48°23' W 004°29'0 0.0
2018-Apr-13 05:00N 48°23' W 004°29'0 0.0
2018-Apr-13 04:30N 48°23' W 004°29'0 0.0
2018-Apr-13 04:00N 48°23' W 004°29'0 0.0
2018-Apr-12 13:08N 48°23' W 004°29'0 0.0
2018-Apr-12 13:01N 48°23' W 004°29'0 0.0
2018-Apr-12 12:31N 48°23' W 004°29'0 0.0
2018-Apr-12 12:01N 48°23' W 004°29'0 0.0
2018-Apr-12 11:31N 48°23' W 004°29'0 0.0
2018-Apr-12 11:00N 48°23' W 004°29'0 0.0
2018-Apr-12 10:30N 48°23' W 004°29'0 0.0
2018-Apr-12 10:00N 48°23' W 004°29'0 0.0
2018-Apr-12 09:30N 48°23' W 004°29'0 0.0
2018-Apr-12 09:00N 48°23' W 004°29'0 0.0
2018-Apr-12 08:31N 48°23' W 004°29'0 0.0
2018-Apr-12 08:01N 48°23' W 004°29'0 0.0
2018-Apr-12 07:30N 48°23' W 004°29'0 0.0
2018-Apr-12 07:00N 48°23' W 004°29'  
Track history (hours):
 
Tides and Currents Weather Stations Pressure Air Temp Water Temp Dewpoint Dewpoint Depression Visibility Wind Speed Wind Dir Waves Ship Positions

Tsm Penzer

Last reported at 2018-Apr-22 06:54 UTC. Time now 2018-Apr-22 14:41 UTC.
Position N 48°23' W 004°29'.

Length 28 m; draft 1 m.

Type: Other ship. MMSI: 228076900.

Date/timePositionNaut miles runAvg speedWind from/ knotsBaromVisibWave heightAir tempDewpointWater temp
2018-Apr-22 06:54N 48°23' W 004°29'0 0.0
2018-Apr-22 06:30N 48°23' W 004°29'0 0.0
2018-Apr-22 06:00N 48°23' W 004°29'0 0.0
2018-Apr-22 05:30N 48°23' W 004°29'0 0.0
2018-Apr-22 05:00N 48°23' W 004°29'0 0.0
2018-Apr-22 04:30N 48°23' W 004°29'0 0.0
2018-Apr-22 04:00N 48°23' W 004°29'0 0.0
2018-Apr-22 03:30N 48°23' W 004°29'0 0.0
2018-Apr-22 03:00N 48°23' W 004°29'0 0.0
2018-Apr-22 02:30N 48°23' W 004°29'0 0.0
2018-Apr-22 02:00N 48°23' W 004°29'0 0.0
2018-Apr-22 01:30N 48°23' W 004°29'0 0.0
2018-Apr-22 01:00N 48°23' W 004°29'3 6.2
2018-Apr-22 00:30N 48°21' W 004°33'5 9.8
2018-Apr-22 00:00N 48°20' W 004°40'510.3
2018-Apr-21 23:30N 48°20' W 004°47'713.3
2018-Apr-21 22:59N 48°27' W 004°49'612.0
2018-Apr-21 22:30N 48°33' W 004°49'611.6
2018-Apr-21 21:58N 48°38' W 004°42'106 4.9
2018-Apr-21 00:28N 48°37' W 002°02'0 0.0
2018-Apr-20 23:58N 48°37' W 002°02'36 6.4
2018-Apr-20 18:18N 48°54' W 002°50'1115.4
2018-Apr-20 17:34N 48°55' W 003°08'214.6
2018-Apr-20 17:28N 48°55' W 003°10'713.6
2018-Apr-20 16:58N 48°53' W 003°20'6210.1
2018-Apr-20 10:54N 48°34' W 004°48'910.0
2018-Apr-20 10:00N 48°25' W 004°49'4 8.9
2018-Apr-20 09:30N 48°20' W 004°47'510.2
2018-Apr-20 09:00N 48°20' W 004°40'713.5
2018-Apr-20 08:30N 48°22' W 004°30'1 2.9
2018-Apr-20 08:00N 48°23' W 004°29'0 0.0
2018-Apr-20 07:30N 48°23' W 004°29'0 0.1
2018-Apr-20 07:00N 48°23' W 004°29'0 0.0
2018-Apr-20 06:30N 48°23' W 004°29'0 0.0
2018-Apr-20 06:00N 48°23' W 004°29'0 0.0
2018-Apr-20 05:30N 48°23' W 004°29'0 0.0
2018-Apr-20 05:00N 48°23' W 004°29'0 0.0
2018-Apr-19 18:01N 48°23' W 004°29'0 0.4
2018-Apr-19 18:00N 48°23' W 004°29'0 0.0
2018-Apr-19 17:30N 48°23' W 004°29'0 0.0
2018-Apr-19 17:01N 48°23' W 004°29'3 6.5
2018-Apr-19 16:30N 48°20' W 004°28'3 5.4
2018-Apr-19 16:00N 48°18' W 004°25'0 0.0
2018-Apr-19 15:30N 48°18' W 004°25'0 0.0
2018-Apr-19 15:01N 48°18' W 004°25'0 0.0
2018-Apr-19 14:30N 48°18' W 004°25'0 0.0
2018-Apr-19 14:00N 48°18' W 004°25'0 0.0
2018-Apr-19 13:31N 48°18' W 004°25'0 0.0
2018-Apr-19 13:00N 48°18' W 004°25'0 0.1
2018-Apr-19 12:30N 48°18' W 004°25'0 0.0
2018-Apr-19 12:00N 48°18' W 004°25'0 0.0
2018-Apr-19 11:30N 48°18' W 004°25'0 0.0
2018-Apr-19 11:00N 48°18' W 004°25'0 0.0
2018-Apr-19 10:30N 48°18' W 004°25'0 0.0
2018-Apr-19 10:00N 48°18' W 004°25'0 0.0
2018-Apr-19 09:31N 48°18' W 004°25'0 0.0
2018-Apr-19 09:01N 48°18' W 004°25'0 0.0
2018-Apr-19 08:30N 48°18' W 004°25'1 2.4
2018-Apr-19 08:00N 48°19' W 004°26'4 8.7
2018-Apr-19 07:30N 48°23' W 004°29'0 0.0
2018-Apr-19 07:00N 48°23' W 004°29'0 0.0
2018-Apr-19 06:30N 48°23' W 004°29'1 1.7
2018-Apr-19 06:00N 48°22' W 004°29'3 5.1
2018-Apr-19 05:31N 48°21' W 004°33'1 2.1
2018-Apr-19 05:01N 48°21' W 004°32'2 3.1
2018-Apr-19 04:30N 48°22' W 004°29'1 1.5
2018-Apr-19 04:00N 48°23' W 004°29'0 0.2
2018-Apr-19 03:30N 48°23' W 004°29'0 0.0
2018-Apr-18 16:14N 48°23' W 004°29'0 1.2
2018-Apr-18 16:01N 48°23' W 004°29'1 1.2
2018-Apr-18 15:31N 48°22' W 004°29'5 9.5
2018-Apr-18 15:01N 48°19' W 004°25'0 0.9
2018-Apr-18 14:31N 48°18' W 004°25'0 0.0
2018-Apr-18 14:00N 48°18' W 004°25'0 0.0
2018-Apr-18 13:31N 48°18' W 004°25'0 0.0
2018-Apr-18 13:01N 48°18' W 004°25'0 0.0
2018-Apr-18 12:30N 48°18' W 004°25'0 0.0
2018-Apr-18 12:01N 48°18' W 004°25'0 0.0
2018-Apr-18 11:30N 48°18' W 004°25'0 0.0
2018-Apr-18 11:01N 48°18' W 004°25'0 0.0
2018-Apr-18 10:31N 48°18' W 004°25'0 0.0
2018-Apr-18 10:01N 48°18' W 004°25'0 0.3
2018-Apr-18 09:30N 48°18' W 004°24'0 0.3
2018-Apr-18 09:00N 48°18' W 004°24'0 0.4
2018-Apr-18 08:31N 48°18' W 004°25'5 9.2
2018-Apr-18 08:01N 48°22' W 004°29'1 2.4
2018-Apr-18 07:31N 48°23' W 004°29'0 0.0
2018-Apr-18 07:01N 48°23' W 004°29'0 0.0
2018-Apr-18 06:31N 48°23' W 004°29'0 0.0
2018-Apr-18 06:01N 48°23' W 004°29'0 0.0
2018-Apr-18 05:31N 48°23' W 004°29'0 0.0
2018-Apr-18 05:01N 48°23' W 004°29'0 0.0
2018-Apr-18 04:31N 48°23' W 004°29'0 0.0
2018-Apr-17 14:58N 48°23' W 004°29'0 0.0
2018-Apr-17 14:30N 48°23' W 004°29'0 0.0
2018-Apr-17 14:00N 48°23' W 004°29'0 0.0
2018-Apr-17 13:30N 48°23' W 004°29'0 0.0
2018-Apr-17 13:00N 48°23' W 004°29'0 0.0
2018-Apr-17 12:30N 48°23' W 004°29'0 0.0
2018-Apr-17 12:00N 48°23' W 004°29'4 7.7
2018-Apr-17 11:30N 48°21' W 004°33'612.2
2018-Apr-17 11:01N 48°16' W 004°39'611.8
2018-Apr-17 10:30N 48°10' W 004°42'611.8
2018-Apr-17 10:00N 48°05' W 004°45'510.5
2018-Apr-17 09:30N 47°60' W 004°42'611.6
2018-Apr-17 08:58N 47°55' W 004°35'1111.1
2018-Apr-17 07:58N 47°47' W 004°24'10 9.9
2018-Apr-17 06:58N 47°47' W 004°09'7 5.2
2018-Apr-17 05:43N 47°53' W 004°07'0 0.1
2018-Apr-17 04:33N 47°53' W 004°07'0 0.1
2018-Apr-17 02:36N 47°53' W 004°07'0 0.0
2018-Apr-17 02:30N 47°53' W 004°07'0 0.0
2018-Apr-17 01:57N 47°53' W 004°07'0 0.0
2018-Apr-16 18:38N 47°53' W 004°07'0 0.1
2018-Apr-16 17:53N 47°53' W 004°07'0 0.1
2018-Apr-16 16:58N 47°53' W 004°07'0 0.0
2018-Apr-16 14:58N 47°53' W 004°07'0 0.0
2018-Apr-16 12:33N 47°53' W 004°07'0 0.0
2018-Apr-16 11:33N 47°53' W 004°07'0 0.0
2018-Apr-16 10:33N 47°53' W 004°07'0 0.0
2018-Apr-16 06:43N 47°53' W 004°07'0 0.0
2018-Apr-16 04:33N 47°53' W 004°07'0 0.0
2018-Apr-16 02:58N 47°53' W 004°07'10 9.4
2018-Apr-16 01:53N 47°44' W 004°15'10 9.4
2018-Apr-16 00:48N 47°49' W 004°28'910.4
2018-Apr-15 23:58N 47°55' W 004°37'5 9.7
2018-Apr-15 23:31N 47°59' W 004°41'4 7.9
2018-Apr-15 23:01N 48°02' W 004°45'3 5.7
2018-Apr-15 22:30N 48°04' W 004°45'5 9.1
2018-Apr-15 22:01N 48°09' W 004°43'5 9.2
2018-Apr-15 21:30N 48°13' W 004°40'5 9.2
2018-Apr-15 21:00N 48°17' W 004°38'5 9.4
2018-Apr-15 20:30N 48°21' W 004°33'4 7.1
2018-Apr-15 20:01N 48°23' W 004°29'0 0.0
2018-Apr-15 19:30N 48°23' W 004°29'0 0.0
2018-Apr-15 19:00N 48°23' W 004°29'0 0.0
2018-Apr-15 18:30N 48°23' W 004°29'0 0.0
2018-Apr-15 18:01N 48°23' W 004°29'0 0.0
2018-Apr-15 17:30N 48°23' W 004°29'0 0.0
2018-Apr-14 09:42N 48°23' W 004°29'0 0.1
2018-Apr-14 09:30N 48°23' W 004°29'1 2.6
2018-Apr-14 09:00N 48°23' W 004°27'2 4.0
2018-Apr-14 08:30N 48°22' W 004°30'4 8.3
2018-Apr-14 08:00N 48°20' W 004°35'5 9.6
2018-Apr-14 07:30N 48°19' W 004°43'4 7.3
2018-Apr-14 07:00N 48°22' W 004°47'612.0
2018-Apr-14 06:30N 48°26' W 004°53'510.8
2018-Apr-14 06:00N 48°28' W 005°01'2 3.6
2018-Apr-14 05:30N 48°28' W 005°03'0 0.0
2018-Apr-14 05:00N 48°28' W 005°03'0 0.0
2018-Apr-14 04:30N 48°28' W 005°03'0 0.0
2018-Apr-14 04:00N 48°28' W 005°03'2 4.2
2018-Apr-14 03:30N 48°28' W 005°00'4 7.8
2018-Apr-14 03:00N 48°26' W 005°05'3 5.1
2018-Apr-14 02:30N 48°26' W 005°09'2 4.5
2018-Apr-14 02:00N 48°27' W 005°06'0 0.0
2018-Apr-14 01:30N 48°27' W 005°06'2 4.6
2018-Apr-14 01:00N 48°26' W 005°09'611.2
2018-Apr-14 00:30N 48°22' W 005°03'611.2
2018-Apr-14 00:00N 48°20' W 004°55'510.5
2018-Apr-13 23:30N 48°19' W 004°47'611.3
2018-Apr-13 23:00N 48°20' W 004°39'5 9.7
2018-Apr-13 22:30N 48°21' W 004°32'3 5.3
2018-Apr-13 22:00N 48°23' W 004°29'0 0.0
2018-Apr-13 21:30N 48°23' W 004°29'0 0.0
2018-Apr-13 21:00N 48°23' W 004°29'0 0.0
2018-Apr-13 20:30N 48°23' W 004°29'0 0.0
2018-Apr-13 20:00N 48°23' W 004°29'0 0.0
2018-Apr-13 19:30N 48°23' W 004°29'0 0.0
2018-Apr-13 19:00N 48°23' W 004°29'0 0.0
2018-Apr-13 18:30N 48°23' W 004°29'0 0.0
2018-Apr-13 18:00N 48°23' W 004°29'0 0.0
2018-Apr-13 17:30N 48°23' W 004°29'0 0.3
2018-Apr-13 17:00N 48°23' W 004°29'1 2.6
2018-Apr-13 16:30N 48°23' W 004°27'0 0.5
2018-Apr-13 15:30N 48°23' W 004°26'2 3.5
2018-Apr-13 15:00N 48°23' W 004°29'0 0.0
2018-Apr-13 14:30N 48°23' W 004°29'0 0.0
2018-Apr-13 14:00N 48°23' W 004°29'0 0.0
2018-Apr-13 13:30N 48°23' W 004°29'0 0.0
2018-Apr-13 13:00N 48°23' W 004°29'0 0.0
2018-Apr-13 12:30N 48°23' W 004°29'0 0.0
2018-Apr-13 12:00N 48°23' W 004°29'0 0.0
2018-Apr-13 11:30N 48°23' W 004°29'0 0.0
2018-Apr-13 11:00N 48°23' W 004°29'0 0.0
2018-Apr-13 10:30N 48°23' W 004°29'0 0.0
2018-Apr-13 10:00N 48°23' W 004°29'0 0.0
2018-Apr-13 09:30N 48°23' W 004°29'0 0.0
2018-Apr-13 09:00N 48°23' W 004°29'2 4.4
2018-Apr-13 08:30N 48°21' W 004°31'1 2.3
2018-Apr-13 08:00N 48°22' W 004°33'0 0.0
2018-Apr-13 07:30N 48°21' W 004°33'2 4.0
2018-Apr-13 07:00N 48°22' W 004°30'1 2.8
2018-Apr-13 06:30N 48°23' W 004°29'0 0.0
2018-Apr-13 06:00N 48°23' W 004°29'0 0.0
2018-Apr-13 05:30N 48°23' W 004°29'0 0.0
2018-Apr-13 05:00N 48°23' W 004°29'0 0.0
2018-Apr-13 04:30N 48°23' W 004°29'0 0.0
2018-Apr-13 04:00N 48°23' W 004°29'0 0.0
2018-Apr-12 13:08N 48°23' W 004°29'0 0.0
2018-Apr-12 13:01N 48°23' W 004°29'0 0.0
2018-Apr-12 12:31N 48°23' W 004°29'0 0.0
2018-Apr-12 12:01N 48°23' W 004°29'0 0.0
2018-Apr-12 11:31N 48°23' W 004°29'0 0.0
2018-Apr-12 11:00N 48°23' W 004°29'0 0.0
2018-Apr-12 10:30N 48°23' W 004°29'0 0.0
2018-Apr-12 10:00N 48°23' W 004°29'0 0.0
2018-Apr-12 09:30N 48°23' W 004°29'0 0.0
2018-Apr-12 09:00N 48°23' W 004°29'0 0.0
2018-Apr-12 08:31N 48°23' W 004°29'0 0.0
2018-Apr-12 08:01N 48°23' W 004°29'0 0.0
2018-Apr-12 07:30N 48°23' W 004°29'0 0.0
2018-Apr-12 07:00N 48°23' W 004°29'  

Dump ship's entire track history